EZY515 EGGP-EGNS
Flight info
| Callsign | EZY515 |
|---|---|
| Flight time | 0h 25m |
| Altitude | 18000 |
| Route | WAL M146 LUSOD DCT IOM |
| Aircraft | A20N/M-SDE2E3FGHIRWXY/LB1 |
Departure
| Time | 2026-05-05 14:31 |
|---|---|
| Airport | Liverpool John Lennon Airport (EGGP) |
Arrival
| Time | 2026-05-05 14:56 |
|---|---|
| Airport | Isle of Man Airport (EGNS) |
| Time | Latitude | Longitude | Altitude | Speed | Heading |
|---|---|---|---|---|---|
| 2026-05-05 13:54 | 53.33642 | -2.85912 | 99 ft | 0 kts | 357° |
| 2026-05-05 14:16 | 53.33637 | -2.85912 | 99 ft | 3 kts | 357° |
| 2026-05-05 14:16 | 53.33627 | -2.85911 | 98 ft | 3 kts | 357° |
| 2026-05-05 14:20 | 53.33622 | -2.85911 | 97 ft | 2 kts | 356° |
| 2026-05-05 14:20 | 53.33605 | -2.85907 | 97 ft | 3 kts | 2° |
| 2026-05-05 14:20 | 53.33590 | -2.85919 | 96 ft | 1 kts | 76° |
| 2026-05-05 14:23 | 53.33591 | -2.85913 | 97 ft | 1 kts | 77° |
| 2026-05-05 14:23 | 53.33592 | -2.85901 | 97 ft | 1 kts | 81° |
| 2026-05-05 14:23 | 53.33597 | -2.85789 | 99 ft | 13 kts | 84° |
| 2026-05-05 14:24 | 53.33605 | -2.85641 | 97 ft | 8 kts | 84° |
| 2026-05-05 14:24 | 53.33605 | -2.85638 | 97 ft | 0 kts | 84° |
| 2026-05-05 14:24 | 53.33605 | -2.85636 | 97 ft | 0 kts | 84° |
| 2026-05-05 14:24 | 53.33593 | -2.85522 | 99 ft | 12 kts | 132° |
| 2026-05-05 14:25 | 53.33562 | -2.85503 | 99 ft | 0 kts | 174° |
| 2026-05-05 14:25 | 53.33538 | -2.85502 | 97 ft | 7 kts | 172° |
| 2026-05-05 14:25 | 53.33509 | -2.85452 | 97 ft | 6 kts | 108° |
| 2026-05-05 14:25 | 53.33505 | -2.85395 | 97 ft | 3 kts | 88° |
| 2026-05-05 14:26 | 53.33515 | -2.85308 | 100 ft | 27 kts | 74° |
| 2026-05-05 14:26 | 53.33528 | -2.85007 | 97 ft | 25 kts | 87° |
| 2026-05-05 14:26 | 53.33539 | -2.84718 | 101 ft | 24 kts | 86° |
| 2026-05-05 14:26 | 53.33553 | -2.84445 | 97 ft | 23 kts | 86° |
| 2026-05-05 14:27 | 53.33564 | -2.84193 | 97 ft | 20 kts | 86° |
| 2026-05-05 14:27 | 53.33576 | -2.83997 | 97 ft | 14 kts | 84° |
| 2026-05-05 14:27 | 53.33582 | -2.83869 | 97 ft | 11 kts | 88° |
| 2026-05-05 14:27 | 53.33585 | -2.83754 | 97 ft | 9 kts | 86° |
| 2026-05-05 14:28 | 53.33593 | -2.83597 | 99 ft | 28 kts | 86° |
| 2026-05-05 14:28 | 53.33592 | -2.83378 | 99 ft | 14 kts | 111° |
| 2026-05-05 14:28 | 53.33547 | -2.83308 | 99 ft | 5 kts | 155° |
| 2026-05-05 14:28 | 53.33514 | -2.83298 | 98 ft | 10 kts | 175° |
| 2026-05-05 14:29 | 53.33451 | -2.83302 | 99 ft | 6 kts | 207° |
| 2026-05-05 14:29 | 53.33440 | -2.83324 | 98 ft | 3 kts | 239° |
| 2026-05-05 14:29 | 53.33435 | -2.83365 | 100 ft | 0 kts | 263° |
| 2026-05-05 14:30 | 53.33434 | -2.83376 | 100 ft | 13 kts | 263° |
| 2026-05-05 14:30 | 53.33408 | -2.83996 | 99 ft | 94 kts | 265° |
| 2026-05-05 14:31 | 53.33335 | -2.85557 | 114 ft | 168 kts | 265° |
| 2026-05-05 14:31 | 53.33223 | -2.87598 | 756 ft | 179 kts | 265° |
| 2026-05-05 14:31 | 53.33096 | -2.89723 | 1668 ft | 193 kts | 266° |
| 2026-05-05 14:31 | 53.33095 | -2.92175 | 2131 ft | 227 kts | 279° |
| 2026-05-05 14:32 | 53.33593 | -2.94786 | 2921 ft | 243 kts | 294° |
| 2026-05-05 14:32 | 53.34333 | -2.97407 | 3922 ft | 254 kts | 297° |
| 2026-05-05 14:32 | 53.35145 | -3.00081 | 4824 ft | 261 kts | 299° |
| 2026-05-05 14:32 | 53.35993 | -3.02805 | 5852 ft | 266 kts | 299° |
| 2026-05-05 14:33 | 53.36841 | -3.05573 | 6921 ft | 268 kts | 298° |
| 2026-05-05 14:33 | 53.37683 | -3.08370 | 8000 ft | 270 kts | 297° |
| 2026-05-05 14:33 | 53.38518 | -3.11177 | 9131 ft | 270 kts | 297° |
| 2026-05-05 14:33 | 53.39482 | -3.13890 | 10081 ft | 273 kts | 306° |
| 2026-05-05 14:34 | 53.40703 | -3.16446 | 10603 ft | 292 kts | 310° |
| 2026-05-05 14:34 | 53.42141 | -3.19057 | 10932 ft | 317 kts | 313° |
| 2026-05-05 14:34 | 53.43746 | -3.21770 | 11440 ft | 333 kts | 314° |
| 2026-05-05 14:34 | 53.45399 | -3.24497 | 12176 ft | 342 kts | 314° |
| 2026-05-05 14:35 | 53.47115 | -3.27326 | 13021 ft | 347 kts | 314° |
| 2026-05-05 14:35 | 53.48844 | -3.30203 | 13943 ft | 351 kts | 313° |
| 2026-05-05 14:35 | 53.50576 | -3.33120 | 14744 ft | 355 kts | 313° |
| 2026-05-05 14:35 | 53.52338 | -3.36119 | 15443 ft | 362 kts | 313° |
| 2026-05-05 14:36 | 53.54115 | -3.39164 | 16207 ft | 367 kts | 312° |
| 2026-05-05 14:36 | 53.55907 | -3.42243 | 16997 ft | 370 kts | 312° |
| 2026-05-05 14:36 | 53.57612 | -3.45453 | 17664 ft | 373 kts | 307° |
| 2026-05-05 14:36 | 53.59217 | -3.48912 | 18000 ft | 375 kts | 305° |
| 2026-05-05 14:37 | 53.60774 | -3.52458 | 18042 ft | 376 kts | 303° |
| 2026-05-05 14:37 | 53.62298 | -3.56055 | 18041 ft | 377 kts | 303° |
| 2026-05-05 14:37 | 53.63807 | -3.59672 | 18040 ft | 378 kts | 303° |
| 2026-05-05 14:37 | 53.64802 | -3.62070 | 18040 ft | 378 kts | 303° |
| 2026-05-05 14:38 | 53.66309 | -3.65707 | 18039 ft | 378 kts | 303° |
| 2026-05-05 14:38 | 53.67816 | -3.69339 | 18025 ft | 378 kts | 303° |
| 2026-05-05 14:38 | 53.69326 | -3.72975 | 17484 ft | 379 kts | 303° |
| 2026-05-05 14:38 | 53.70840 | -3.76609 | 17043 ft | 377 kts | 303° |
| 2026-05-05 14:39 | 53.72344 | -3.80218 | 16597 ft | 374 kts | 303° |
| 2026-05-05 14:39 | 53.73836 | -3.83801 | 16158 ft | 372 kts | 303° |
| 2026-05-05 14:39 | 53.75318 | -3.87364 | 15726 ft | 370 kts | 303° |
| 2026-05-05 14:39 | 53.76790 | -3.90910 | 15300 ft | 367 kts | 303° |
| 2026-05-05 14:40 | 53.78257 | -3.94450 | 14881 ft | 365 kts | 303° |
| 2026-05-05 14:40 | 53.79691 | -3.97915 | 14470 ft | 363 kts | 303° |
| 2026-05-05 14:40 | 53.81135 | -4.01410 | 14062 ft | 361 kts | 303° |
| 2026-05-05 14:40 | 53.82567 | -4.04882 | 13631 ft | 359 kts | 304° |
| 2026-05-05 14:41 | 53.83996 | -4.08350 | 13173 ft | 356 kts | 304° |
| 2026-05-05 14:41 | 53.85407 | -4.11780 | 12720 ft | 354 kts | 304° |
| 2026-05-05 14:41 | 53.86807 | -4.15188 | 12276 ft | 351 kts | 304° |
| 2026-05-05 14:41 | 53.88202 | -4.18590 | 11840 ft | 349 kts | 304° |
| 2026-05-05 14:42 | 53.89570 | -4.21928 | 11418 ft | 341 kts | 304° |
| 2026-05-05 14:42 | 53.90887 | -4.25148 | 10989 ft | 333 kts | 304° |
| 2026-05-05 14:42 | 53.92191 | -4.28343 | 10576 ft | 326 kts | 304° |
| 2026-05-05 14:42 | 53.93443 | -4.31510 | 10170 ft | 320 kts | 300° |
| 2026-05-05 14:43 | 53.94515 | -4.34784 | 9746 ft | 314 kts | 298° |
| 2026-05-05 14:43 | 53.95520 | -4.38038 | 9306 ft | 308 kts | 297° |
| 2026-05-05 14:43 | 53.96474 | -4.41262 | 8855 ft | 303 kts | 296° |
| 2026-05-05 14:43 | 53.97397 | -4.44450 | 8417 ft | 298 kts | 296° |
| 2026-05-05 14:44 | 53.98301 | -4.47604 | 7978 ft | 294 kts | 296° |
| 2026-05-05 14:44 | 53.99175 | -4.50721 | 7527 ft | 290 kts | 297° |
| 2026-05-05 14:44 | 54.00039 | -4.53761 | 7038 ft | 288 kts | 297° |
| 2026-05-05 14:44 | 54.00942 | -4.56799 | 6540 ft | 286 kts | 303° |
| 2026-05-05 14:45 | 54.02197 | -4.59367 | 6028 ft | 281 kts | 320° |
| 2026-05-05 14:45 | 54.03874 | -4.61008 | 5499 ft | 277 kts | 342° |
| 2026-05-05 14:45 | 54.05777 | -4.61329 | 4987 ft | 276 kts | 6° |
| 2026-05-05 14:45 | 54.07564 | -4.60198 | 4470 ft | 277 kts | 31° |
| 2026-05-05 14:46 | 54.08876 | -4.57823 | 3953 ft | 279 kts | 57° |
| 2026-05-05 14:46 | 54.09529 | -4.54745 | 3444 ft | 281 kts | 72° |
| 2026-05-05 14:46 | 54.09924 | -4.51494 | 2991 ft | 278 kts | 75° |
| 2026-05-05 14:46 | 54.10276 | -4.48303 | 2706 ft | 270 kts | 75° |
| 2026-05-05 14:47 | 54.10631 | -4.45217 | 2447 ft | 260 kts | 72° |
| 2026-05-05 14:47 | 54.11457 | -4.42639 | 2300 ft | 240 kts | 38° |
| 2026-05-05 14:47 | 54.12897 | -4.41626 | 2287 ft | 218 kts | 359° |
| 2026-05-05 14:47 | 54.14231 | -4.42474 | 2283 ft | 203 kts | 317° |
| 2026-05-05 14:48 | 54.14793 | -4.44627 | 2287 ft | 206 kts | 274° |
| 2026-05-05 14:48 | 54.14533 | -4.47082 | 2239 ft | 218 kts | 250° |
| 2026-05-05 14:48 | 54.13621 | -4.49151 | 1995 ft | 225 kts | 215° |
| 2026-05-05 14:48 | 54.12143 | -4.49939 | 1747 ft | 225 kts | 184° |
| 2026-05-05 14:49 | 54.10591 | -4.50291 | 1471 ft | 224 kts | 205° |
| 2026-05-05 14:49 | 54.09480 | -4.51956 | 1207 ft | 211 kts | 248° |
| 2026-05-05 14:49 | 54.09088 | -4.54298 | 985 ft | 200 kts | 264° |
| 2026-05-05 14:49 | 54.08879 | -4.56533 | 873 ft | 183 kts | 266° |
| 2026-05-05 14:50 | 54.08728 | -4.58628 | 521 ft | 174 kts | 271° |
| 2026-05-05 14:50 | 54.08543 | -4.60608 | 162 ft | 164 kts | 261° |
| 2026-05-05 14:50 | 54.08343 | -4.62583 | 492 ft | 184 kts | 266° |
| 2026-05-05 14:50 | 54.08100 | -4.64920 | 855 ft | 219 kts | 258° |
| 2026-05-05 14:51 | 54.07293 | -4.67332 | 1571 ft | 252 kts | 226° |
| 2026-05-05 14:51 | 54.05682 | -4.68875 | 2034 ft | 273 kts | 193° |
| 2026-05-05 14:51 | 54.03938 | -4.68615 | 2112 ft | 249 kts | 151° |
| 2026-05-05 14:51 | 54.02820 | -4.66619 | 1924 ft | 228 kts | 104° |
| 2026-05-05 14:52 | 54.02722 | -4.64055 | 1763 ft | 213 kts | 78° |
| 2026-05-05 14:52 | 54.02935 | -4.61587 | 1649 ft | 210 kts | 77° |
| 2026-05-05 14:52 | 54.03174 | -4.59113 | 1749 ft | 213 kts | 76° |
| 2026-05-05 14:52 | 54.03427 | -4.56611 | 1828 ft | 215 kts | 77° |
| 2026-05-05 14:53 | 54.03644 | -4.54114 | 1817 ft | 212 kts | 78° |
| 2026-05-05 14:53 | 54.03833 | -4.51613 | 1817 ft | 214 kts | 79° |
| 2026-05-05 14:53 | 54.04114 | -4.49141 | 1812 ft | 210 kts | 62° |
| 2026-05-05 14:53 | 54.05016 | -4.47329 | 1804 ft | 196 kts | 27° |
| 2026-05-05 14:54 | 54.06276 | -4.46725 | 1757 ft | 189 kts | 4° |
| 2026-05-05 14:54 | 54.07586 | -4.46781 | 1728 ft | 190 kts | 343° |
| 2026-05-05 14:54 | 54.08654 | -4.48039 | 1683 ft | 193 kts | 308° |
| 2026-05-05 14:54 | 54.09090 | -4.50249 | 1120 ft | 207 kts | 274° |
| 2026-05-05 14:55 | 54.09170 | -4.52561 | 1065 ft | 178 kts | 278° |
| 2026-05-05 14:55 | 54.09202 | -4.54515 | 924 ft | 160 kts | 274° |
| 2026-05-05 14:55 | 54.09079 | -4.56389 | 537 ft | 159 kts | 263° |
| 2026-05-05 14:55 | 54.08862 | -4.58188 | 333 ft | 148 kts | 260° |
| 2026-05-05 14:56 | 54.08633 | -4.59826 | 208 ft | 138 kts | 266° |
| 2026-05-05 14:56 | 54.08451 | -4.61410 | 40 ft | 132 kts | 264° |
| 2026-05-05 14:56 | 54.08287 | -4.62693 | 40 ft | 82 kts | 257° |
| 2026-05-05 14:56 | 54.08223 | -4.63236 | 43 ft | 21 kts | 260° |
| 2026-05-05 14:57 | 54.08299 | -4.63341 | 44 ft | 14 kts | 346° |
| 2026-05-05 14:57 | 54.08332 | -4.63356 | 44 ft | 1 kts | 342° |
| 2026-05-05 14:57 | 54.08341 | -4.63361 | 44 ft | 2 kts | 342° |
| 2026-05-05 14:57 | 54.08358 | -4.63367 | 44 ft | 3 kts | 349° |
| 2026-05-05 14:58 | 54.08385 | -4.63376 | 41 ft | 5 kts | 347° |
| 2026-05-05 14:58 | 54.08420 | -4.63390 | 43 ft | 6 kts | 351° |
| 2026-05-05 14:58 | 54.08460 | -4.63375 | 43 ft | 6 kts | 24° |
| 2026-05-05 14:58 | 54.08498 | -4.63337 | 43 ft | 7 kts | 31° |
| 2026-05-05 14:59 | 54.08536 | -4.63350 | 43 ft | 6 kts | 312° |
| 2026-05-05 14:59 | 54.08562 | -4.63398 | 43 ft | 5 kts | 318° |
| 2026-05-05 14:59 | 54.08593 | -4.63399 | 43 ft | 4 kts | 30° |
| 2026-05-05 14:59 | 54.08601 | -4.63386 | 42 ft | 0 kts | 43° |
| 2026-05-05 15:00 | 54.08603 | -4.63383 | 43 ft | 0 kts | 44° |